sensor_id;sensor_type;location;lat;lon;timestamp;temperature;humidity
16247;DHT22;8231;50.866;7.944;2023-08-21T00:00:16;19.30;99.90
16247;DHT22;8231;50.866;7.944;2023-08-21T00:02:45;19.20;99.90
16247;DHT22;8231;50.866;7.944;2023-08-21T00:05:14;19.20;99.90
16247;DHT22;8231;50.866;7.944;2023-08-21T00:07:42;19.20;99.90
16247;DHT22;8231;50.866;7.944;2023-08-21T00:10:12;19.20;99.90
16247;DHT22;8231;50.866;7.944;2023-08-21T00:12:42;19.10;99.90
16247;DHT22;8231;50.866;7.944;2023-08-21T00:15:10;19.10;99.90
16247;DHT22;8231;50.866;7.944;2023-08-21T00:17:39;19.10;99.90
16247;DHT22;8231;50.866;7.944;2023-08-21T00:20:08;19.10;99.90
16247;DHT22;8231;50.866;7.944;2023-08-21T00:22:37;19.10;99.90
16247;DHT22;8231;50.866;7.944;2023-08-21T00:25:06;19.10;99.90
16247;DHT22;8231;50.866;7.944;2023-08-21T00:27:35;19.10;99.90
16247;DHT22;8231;50.866;7.944;2023-08-21T00:30:06;19.20;99.90
16247;DHT22;8231;50.866;7.944;2023-08-21T00:32:35;19.00;99.90
16247;DHT22;8231;50.866;7.944;2023-08-21T00:35:04;18.90;99.90
16247;DHT22;8231;50.866;7.944;2023-08-21T00:37:33;18.90;99.90
16247;DHT22;8231;50.866;7.944;2023-08-21T00:40:02;18.90;99.90
16247;DHT22;8231;50.866;7.944;2023-08-21T00:42:30;18.90;99.90
16247;DHT22;8231;50.866;7.944;2023-08-21T00:45:00;18.90;99.90
16247;DHT22;8231;50.866;7.944;2023-08-21T00:47:30;18.90;99.90
16247;DHT22;8231;50.866;7.944;2023-08-21T00:49:58;18.80;99.90
16247;DHT22;8231;50.866;7.944;2023-08-21T00:52:26;18.80;99.90
16247;DHT22;8231;50.866;7.944;2023-08-21T00:54:55;18.80;99.90
16247;DHT22;8231;50.866;7.944;2023-08-21T00:57:24;18.80;99.90
16247;DHT22;8231;50.866;7.944;2023-08-21T00:59:53;18.70;99.90
16247;DHT22;8231;50.866;7.944;2023-08-21T01:02:22;18.80;99.90
16247;DHT22;8231;50.866;7.944;2023-08-21T01:04:52;18.80;99.90
16247;DHT22;8231;50.866;7.944;2023-08-21T01:07:20;18.80;99.90
16247;DHT22;8231;50.866;7.944;2023-08-21T01:09:54;18.80;99.90
16247;DHT22;8231;50.866;7.944;2023-08-21T01:12:31;18.90;99.90
16247;DHT22;8231;50.866;7.944;2023-08-21T01:15:02;18.80;99.90
16247;DHT22;8231;50.866;7.944;2023-08-21T01:17:34;18.70;99.90
16247;DHT22;8231;50.866;7.944;2023-08-21T01:20:09;18.70;99.90
16247;DHT22;8231;50.866;7.944;2023-08-21T01:22:38;18.70;99.90
16247;DHT22;8231;50.866;7.944;2023-08-21T01:25:09;18.70;99.90
16247;DHT22;8231;50.866;7.944;2023-08-21T01:27:40;18.60;99.90
16247;DHT22;8231;50.866;7.944;2023-08-21T01:30:08;18.60;99.90
16247;DHT22;8231;50.866;7.944;2023-08-21T01:32:41;18.60;99.90
16247;DHT22;8231;50.866;7.944;2023-08-21T01:35:12;18.40;99.90
16247;DHT22;8231;50.866;7.944;2023-08-21T01:37:40;18.30;99.90
16247;DHT22;8231;50.866;7.944;2023-08-21T01:40:11;18.50;99.90
16247;DHT22;8231;50.866;7.944;2023-08-21T01:42:39;18.40;99.90
16247;DHT22;8231;50.866;7.944;2023-08-21T01:45:09;18.30;99.90
16247;DHT22;8231;50.866;7.944;2023-08-21T01:47:37;18.30;99.90
16247;DHT22;8231;50.866;7.944;2023-08-21T01:50:08;18.20;99.90
16247;DHT22;8231;50.866;7.944;2023-08-21T01:52:38;18.20;99.90
16247;DHT22;8231;50.866;7.944;2023-08-21T01:55:07;18.20;99.90
16247;DHT22;8231;50.866;7.944;2023-08-21T01:57:38;18.10;99.90
16247;DHT22;8231;50.866;7.944;2023-08-21T02:00:07;18.10;99.90
16247;DHT22;8231;50.866;7.944;2023-08-21T02:02:44;18.00;99.90
16247;DHT22;8231;50.866;7.944;2023-08-21T02:05:12;18.00;99.90
16247;DHT22;8231;50.866;7.944;2023-08-21T02:07:41;18.00;99.90
16247;DHT22;8231;50.866;7.944;2023-08-21T02:10:10;18.10;99.90
16247;DHT22;8231;50.866;7.944;2023-08-21T02:12:40;17.90;99.90
16247;DHT22;8231;50.866;7.944;2023-08-21T02:15:10;17.90;99.90
16247;DHT22;8231;50.866;7.944;2023-08-21T02:17:39;17.80;99.90
16247;DHT22;8231;50.866;7.944;2023-08-21T02:20:12;18.00;99.90
16247;DHT22;8231;50.866;7.944;2023-08-21T02:22:40;17.80;99.90
16247;DHT22;8231;50.866;7.944;2023-08-21T02:25:08;17.70;99.90
16247;DHT22;8231;50.866;7.944;2023-08-21T02:27:37;17.70;99.90
16247;DHT22;8231;50.866;7.944;2023-08-21T02:30:07;17.60;99.90
16247;DHT22;8231;50.866;7.944;2023-08-21T02:32:36;17.60;99.90
16247;DHT22;8231;50.866;7.944;2023-08-21T02:35:08;17.60;99.90
16247;DHT22;8231;50.866;7.944;2023-08-21T02:37:36;17.60;99.90
16247;DHT22;8231;50.866;7.944;2023-08-21T02:40:07;17.50;99.90
16247;DHT22;8231;50.866;7.944;2023-08-21T02:42:36;17.50;99.90
16247;DHT22;8231;50.866;7.944;2023-08-21T02:45:08;17.50;99.90
16247;DHT22;8231;50.866;7.944;2023-08-21T02:47:38;17.50;99.90
16247;DHT22;8231;50.866;7.944;2023-08-21T02:50:08;17.40;99.90
16247;DHT22;8231;50.866;7.944;2023-08-21T02:52:37;17.40;99.90
16247;DHT22;8231;50.866;7.944;2023-08-21T02:55:08;17.40;99.90
16247;DHT22;8231;50.866;7.944;2023-08-21T02:57:36;17.30;99.90
16247;DHT22;8231;50.866;7.944;2023-08-21T03:00:08;17.30;99.90
16247;DHT22;8231;50.866;7.944;2023-08-21T03:02:36;17.30;99.90
16247;DHT22;8231;50.866;7.944;2023-08-21T03:05:05;17.30;99.90
16247;DHT22;8231;50.866;7.944;2023-08-21T03:07:36;17.20;99.90
16247;DHT22;8231;50.866;7.944;2023-08-21T03:10:05;17.20;99.90
16247;DHT22;8231;50.866;7.944;2023-08-21T03:12:33;17.20;99.90
16247;DHT22;8231;50.866;7.944;2023-08-21T03:15:03;17.20;99.90
16247;DHT22;8231;50.866;7.944;2023-08-21T03:17:33;17.20;99.90
16247;DHT22;8231;50.866;7.944;2023-08-21T03:20:02;17.20;99.90
16247;DHT22;8231;50.866;7.944;2023-08-21T03:22:31;17.10;99.90
16247;DHT22;8231;50.866;7.944;2023-08-21T03:25:00;17.10;99.90
16247;DHT22;8231;50.866;7.944;2023-08-21T03:27:28;17.10;99.90
16247;DHT22;8231;50.866;7.944;2023-08-21T03:29:57;17.10;99.90
16247;DHT22;8231;50.866;7.944;2023-08-21T03:32:28;17.20;99.90
16247;DHT22;8231;50.866;7.944;2023-08-21T03:34:58;17.10;99.90
16247;DHT22;8231;50.866;7.944;2023-08-21T03:37:27;17.10;99.90
16247;DHT22;8231;50.866;7.944;2023-08-21T03:39:56;17.00;99.90
16247;DHT22;8231;50.866;7.944;2023-08-21T03:42:24;17.00;99.90
16247;DHT22;8231;50.866;7.944;2023-08-21T03:44:52;17.00;99.90
16247;DHT22;8231;50.866;7.944;2023-08-21T03:47:21;17.00;99.90
16247;DHT22;8231;50.866;7.944;2023-08-21T03:49:55;17.00;99.90
16247;DHT22;8231;50.866;7.944;2023-08-21T03:52:26;17.00;99.90
16247;DHT22;8231;50.866;7.944;2023-08-21T03:54:55;16.90;99.90
16247;DHT22;8231;50.866;7.944;2023-08-21T03:57:23;16.90;99.90
16247;DHT22;8231;50.866;7.944;2023-08-21T03:59:51;16.80;99.90
16247;DHT22;8231;50.866;7.944;2023-08-21T04:02:19;16.80;99.90
16247;DHT22;8231;50.866;7.944;2023-08-21T04:04:52;16.80;99.90
16247;DHT22;8231;50.866;7.944;2023-08-21T04:07:20;16.80;99.90
16247;DHT22;8231;50.866;7.944;2023-08-21T04:09:50;16.70;99.90
16247;DHT22;8231;50.866;7.944;2023-08-21T04:12:18;16.70;99.90
16247;DHT22;8231;50.866;7.944;2023-08-21T04:14:47;16.70;99.90
16247;DHT22;8231;50.866;7.944;2023-08-21T04:17:20;16.80;99.90
16247;DHT22;8231;50.866;7.944;2023-08-21T04:19:50;16.70;99.90
16247;DHT22;8231;50.866;7.944;2023-08-21T04:22:21;16.60;99.90
16247;DHT22;8231;50.866;7.944;2023-08-21T04:24:51;16.70;99.90
16247;DHT22;8231;50.866;7.944;2023-08-21T04:27:19;16.60;99.90
16247;DHT22;8231;50.866;7.944;2023-08-21T04:29:48;16.70;99.90
16247;DHT22;8231;50.866;7.944;2023-08-21T04:32:17;16.60;99.90
16247;DHT22;8231;50.866;7.944;2023-08-21T04:34:46;16.60;99.90
16247;DHT22;8231;50.866;7.944;2023-08-21T04:37:14;16.60;99.90
16247;DHT22;8231;50.866;7.944;2023-08-21T04:39:43;16.70;99.90
16247;DHT22;8231;50.866;7.944;2023-08-21T04:42:14;16.60;99.90
16247;DHT22;8231;50.866;7.944;2023-08-21T04:44:43;16.70;99.90
16247;DHT22;8231;50.866;7.944;2023-08-21T04:47:22;16.70;99.90
16247;DHT22;8231;50.866;7.944;2023-08-21T04:49:55;16.70;99.90
16247;DHT22;8231;50.866;7.944;2023-08-21T04:52:24;16.70;99.90
16247;DHT22;8231;50.866;7.944;2023-08-21T04:54:54;16.70;99.90
16247;DHT22;8231;50.866;7.944;2023-08-21T04:57:24;16.70;99.90
16247;DHT22;8231;50.866;7.944;2023-08-21T04:59:52;16.70;99.90
16247;DHT22;8231;50.866;7.944;2023-08-21T05:02:22;16.80;99.90
16247;DHT22;8231;50.866;7.944;2023-08-21T05:04:51;16.80;99.90
16247;DHT22;8231;50.866;7.944;2023-08-21T05:07:19;16.90;99.90
16247;DHT22;8231;50.866;7.944;2023-08-21T05:09:48;16.90;99.90
16247;DHT22;8231;50.866;7.944;2023-08-21T05:12:19;17.00;99.90
16247;DHT22;8231;50.866;7.944;2023-08-21T05:14:49;17.10;99.90
16247;DHT22;8231;50.866;7.944;2023-08-21T05:17:17;17.20;99.90
16247;DHT22;8231;50.866;7.944;2023-08-21T05:19:45;17.20;99.90
16247;DHT22;8231;50.866;7.944;2023-08-21T05:22:14;17.30;99.90
16247;DHT22;8231;50.866;7.944;2023-08-21T05:24:42;17.40;99.90
16247;DHT22;8231;50.866;7.944;2023-08-21T05:27:10;17.60;99.90
16247;DHT22;8231;50.866;7.944;2023-08-21T05:29:39;17.60;99.90
16247;DHT22;8231;50.866;7.944;2023-08-21T05:32:09;17.80;99.90
16247;DHT22;8231;50.866;7.944;2023-08-21T05:34:37;18.00;99.90
16247;DHT22;8231;50.866;7.944;2023-08-21T05:37:06;18.30;99.90
16247;DHT22;8231;50.866;7.944;2023-08-21T05:39:35;18.70;99.90
16247;DHT22;8231;50.866;7.944;2023-08-21T05:42:04;19.10;99.90
16247;DHT22;8231;50.866;7.944;2023-08-21T05:44:33;19.40;99.90
16247;DHT22;8231;50.866;7.944;2023-08-21T05:47:01;19.90;99.90
16247;DHT22;8231;50.866;7.944;2023-08-21T05:49:31;20.30;99.90
16247;DHT22;8231;50.866;7.944;2023-08-21T05:51:59;20.80;99.90
16247;DHT22;8231;50.866;7.944;2023-08-21T05:54:27;21.20;99.90
16247;DHT22;8231;50.866;7.944;2023-08-21T05:56:57;21.80;99.90
16247;DHT22;8231;50.866;7.944;2023-08-21T05:59:30;22.10;99.90
16247;DHT22;8231;50.866;7.944;2023-08-21T06:02:01;22.50;99.90
16247;DHT22;8231;50.866;7.944;2023-08-21T06:04:32;22.80;99.90
16247;DHT22;8231;50.866;7.944;2023-08-21T06:07:01;23.00;99.90
16247;DHT22;8231;50.866;7.944;2023-08-21T06:09:32;22.90;99.90
16247;DHT22;8231;50.866;7.944;2023-08-21T06:12:01;22.70;99.90
16247;DHT22;8231;50.866;7.944;2023-08-21T06:14:31;22.50;99.90
16247;DHT22;8231;50.866;7.944;2023-08-21T06:17:01;22.40;99.90
16247;DHT22;8231;50.866;7.944;2023-08-21T06:19:32;22.30;99.90
16247;DHT22;8231;50.866;7.944;2023-08-21T06:22:00;22.20;99.90
16247;DHT22;8231;50.866;7.944;2023-08-21T06:24:28;22.10;99.90
16247;DHT22;8231;50.866;7.944;2023-08-21T06:27:01;22.30;99.90
16247;DHT22;8231;50.866;7.944;2023-08-21T06:29:33;22.60;99.90
16247;DHT22;8231;50.866;7.944;2023-08-21T06:32:02;23.10;99.90
16247;DHT22;8231;50.866;7.944;2023-08-21T06:34:31;23.80;99.90
16247;DHT22;8231;50.866;7.944;2023-08-21T06:37:00;24.70;99.90
16247;DHT22;8231;50.866;7.944;2023-08-21T06:39:28;25.50;99.90
16247;DHT22;8231;50.866;7.944;2023-08-21T06:41:56;26.20;99.90
16247;DHT22;8231;50.866;7.944;2023-08-21T06:44:31;27.00;99.90
16247;DHT22;8231;50.866;7.944;2023-08-21T06:46:59;27.70;99.90
16247;DHT22;8231;50.866;7.944;2023-08-21T06:49:28;28.30;99.90
16247;DHT22;8231;50.866;7.944;2023-08-21T06:51:58;28.70;99.90
16247;DHT22;8231;50.866;7.944;2023-08-21T06:54:26;29.10;99.90
16247;DHT22;8231;50.866;7.944;2023-08-21T06:56:54;29.40;99.90
16247;DHT22;8231;50.866;7.944;2023-08-21T06:59:22;29.70;99.90
16247;DHT22;8231;50.866;7.944;2023-08-21T07:01:50;29.90;99.90
16247;DHT22;8231;50.866;7.944;2023-08-21T07:04:18;30.20;99.90
16247;DHT22;8231;50.866;7.944;2023-08-21T07:06:47;30.30;99.90
16247;DHT22;8231;50.866;7.944;2023-08-21T07:09:16;30.40;99.90
16247;DHT22;8231;50.866;7.944;2023-08-21T07:11:44;30.60;99.90
16247;DHT22;8231;50.866;7.944;2023-08-21T07:14:13;31.00;99.90
16247;DHT22;8231;50.866;7.944;2023-08-21T07:16:41;31.00;99.90
16247;DHT22;8231;50.866;7.944;2023-08-21T07:19:09;31.50;99.90
16247;DHT22;8231;50.866;7.944;2023-08-21T07:21:37;31.80;99.90
16247;DHT22;8231;50.866;7.944;2023-08-21T07:24:06;32.20;99.90
16247;DHT22;8231;50.866;7.944;2023-08-21T07:26:36;32.30;99.90
16247;DHT22;8231;50.866;7.944;2023-08-21T07:29:04;32.50;99.90
16247;DHT22;8231;50.866;7.944;2023-08-21T07:31:34;32.90;99.90
16247;DHT22;8231;50.866;7.944;2023-08-21T07:34:02;33.40;99.90
16247;DHT22;8231;50.866;7.944;2023-08-21T07:36:31;33.90;99.90
16247;DHT22;8231;50.866;7.944;2023-08-21T07:39:00;34.20;99.20
16247;DHT22;8231;50.866;7.944;2023-08-21T07:41:28;34.20;98.80
16247;DHT22;8231;50.866;7.944;2023-08-21T07:43:58;34.50;98.30
16247;DHT22;8231;50.866;7.944;2023-08-21T07:46:26;34.70;97.60
16247;DHT22;8231;50.866;7.944;2023-08-21T07:48:54;34.80;96.20
16247;DHT22;8231;50.866;7.944;2023-08-21T07:51:22;34.80;96.30
16247;DHT22;8231;50.866;7.944;2023-08-21T07:53:50;34.70;96.00
16247;DHT22;8231;50.866;7.944;2023-08-21T07:56:19;34.90;96.10
16247;DHT22;8231;50.866;7.944;2023-08-21T07:58:47;34.70;95.50
16247;DHT22;8231;50.866;7.944;2023-08-21T08:01:17;34.80;95.10
16247;DHT22;8231;50.866;7.944;2023-08-21T08:03:47;35.10;94.70
16247;DHT22;8231;50.866;7.944;2023-08-21T08:06:17;35.10;94.30
16247;DHT22;8231;50.866;7.944;2023-08-21T08:08:45;35.20;94.50
16247;DHT22;8231;50.866;7.944;2023-08-21T08:11:13;35.40;94.50
16247;DHT22;8231;50.866;7.944;2023-08-21T08:13:42;36.00;94.40
16247;DHT22;8231;50.866;7.944;2023-08-21T08:16:10;35.90;93.20
16247;DHT22;8231;50.866;7.944;2023-08-21T08:18:41;36.40;93.70
16247;DHT22;8231;50.866;7.944;2023-08-21T08:21:09;36.80;91.80
16247;DHT22;8231;50.866;7.944;2023-08-21T08:23:38;36.70;92.50
16247;DHT22;8231;50.866;7.944;2023-08-21T08:26:06;36.60;93.20
16247;DHT22;8231;50.866;7.944;2023-08-21T08:28:35;36.40;92.10
16247;DHT22;8231;50.866;7.944;2023-08-21T08:31:03;36.30;92.60
16247;DHT22;8231;50.866;7.944;2023-08-21T08:33:31;36.20;92.10
16247;DHT22;8231;50.866;7.944;2023-08-21T08:36:00;36.00;93.20
16247;DHT22;8231;50.866;7.944;2023-08-21T08:38:28;36.10;92.60
16247;DHT22;8231;50.866;7.944;2023-08-21T08:40:56;36.10;92.30
16247;DHT22;8231;50.866;7.944;2023-08-21T08:43:25;36.10;91.90
16247;DHT22;8231;50.866;7.944;2023-08-21T08:45:56;36.20;92.90
16247;DHT22;8231;50.866;7.944;2023-08-21T08:48:26;36.30;92.30
16247;DHT22;8231;50.866;7.944;2023-08-21T08:50:54;36.40;92.10
16247;DHT22;8231;50.866;7.944;2023-08-21T08:53:27;36.40;92.10
16247;DHT22;8231;50.866;7.944;2023-08-21T08:55:57;36.70;91.60
16247;DHT22;8231;50.866;7.944;2023-08-21T08:58:25;36.70;91.70
16247;DHT22;8231;50.866;7.944;2023-08-21T09:00:53;36.70;91.60
16247;DHT22;8231;50.866;7.944;2023-08-21T09:03:21;36.80;90.60
16247;DHT22;8231;50.866;7.944;2023-08-21T09:05:50;36.70;90.70
16247;DHT22;8231;50.866;7.944;2023-08-21T09:08:18;36.40;91.20
16247;DHT22;8231;50.866;7.944;2023-08-21T09:10:49;36.40;90.90
16247;DHT22;8231;50.866;7.944;2023-08-21T09:13:18;36.20;90.20
16247;DHT22;8231;50.866;7.944;2023-08-21T09:15:48;36.00;90.40
16247;DHT22;8231;50.866;7.944;2023-08-21T09:18:17;35.70;90.40
16247;DHT22;8231;50.866;7.944;2023-08-21T09:20:45;35.40;91.50
16247;DHT22;8231;50.866;7.944;2023-08-21T09:23:39;35.40;91.90
16247;DHT22;8231;50.866;7.944;2023-08-21T09:26:09;35.50;91.20
16247;DHT22;8231;50.866;7.944;2023-08-21T09:28:37;35.40;91.50
16247;DHT22;8231;50.866;7.944;2023-08-21T09:31:06;35.10;91.60
16247;DHT22;8231;50.866;7.944;2023-08-21T09:33:35;35.10;91.40
16247;DHT22;8231;50.866;7.944;2023-08-21T09:36:04;35.00;91.90
16247;DHT22;8231;50.866;7.944;2023-08-21T09:38:34;34.80;91.50
16247;DHT22;8231;50.866;7.944;2023-08-21T09:41:02;34.40;91.60
16247;DHT22;8231;50.866;7.944;2023-08-21T09:43:32;34.10;92.50
16247;DHT22;8231;50.866;7.944;2023-08-21T09:46:00;34.00;93.00
16247;DHT22;8231;50.866;7.944;2023-08-21T09:48:33;34.10;93.20
16247;DHT22;8231;50.866;7.944;2023-08-21T09:51:03;34.20;93.70
16247;DHT22;8231;50.866;7.944;2023-08-21T09:53:32;34.20;92.50
16247;DHT22;8231;50.866;7.944;2023-08-21T09:56:04;34.00;92.50
16247;DHT22;8231;50.866;7.944;2023-08-21T09:58:35;33.80;93.20
16247;DHT22;8231;50.866;7.944;2023-08-21T10:01:05;33.60;92.80
16247;DHT22;8231;50.866;7.944;2023-08-21T10:03:39;33.60;92.80
16247;DHT22;8231;50.866;7.944;2023-08-21T10:06:09;33.70;93.80
16247;DHT22;8231;50.866;7.944;2023-08-21T10:08:39;33.70;93.20
16247;DHT22;8231;50.866;7.944;2023-08-21T10:11:08;33.60;92.60
16247;DHT22;8231;50.866;7.944;2023-08-21T10:13:39;33.60;93.40
16247;DHT22;8231;50.866;7.944;2023-08-21T10:16:09;33.60;92.80
16247;DHT22;8231;50.866;7.944;2023-08-21T10:18:44;33.70;93.00
16247;DHT22;8231;50.866;7.944;2023-08-21T10:21:15;33.80;92.80
16247;DHT22;8231;50.866;7.944;2023-08-21T10:23:46;33.80;92.70
16247;DHT22;8231;50.866;7.944;2023-08-21T10:26:16;33.80;91.80
16247;DHT22;8231;50.866;7.944;2023-08-21T10:28:51;33.70;93.00
16247;DHT22;8231;50.866;7.944;2023-08-21T10:31:27;33.80;92.70
16247;DHT22;8231;50.866;7.944;2023-08-21T10:33:56;33.90;92.80
16247;DHT22;8231;50.866;7.944;2023-08-21T10:37:02;33.90;93.20
16247;DHT22;8231;50.866;7.944;2023-08-21T10:39:31;34.10;92.40
16247;DHT22;8231;50.866;7.944;2023-08-21T10:42:06;34.10;91.80
16247;DHT22;8231;50.866;7.944;2023-08-21T10:44:47;34.10;92.90
16247;DHT22;8231;50.866;7.944;2023-08-21T10:47:20;34.10;92.40
16247;DHT22;8231;50.866;7.944;2023-08-21T10:49:51;33.90;93.20
16247;DHT22;8231;50.866;7.944;2023-08-21T10:52:23;34.00;92.30
16247;DHT22;8231;50.866;7.944;2023-08-21T10:54:54;33.90;93.50
16247;DHT22;8231;50.866;7.944;2023-08-21T10:57:23;33.80;93.10
16247;DHT22;8231;50.866;7.944;2023-08-21T10:59:54;33.60;92.50
16247;DHT22;8231;50.866;7.944;2023-08-21T11:02:23;33.30;93.10
16247;DHT22;8231;50.866;7.944;2023-08-21T11:04:52;33.40;93.70
16247;DHT22;8231;50.866;7.944;2023-08-21T11:07:21;33.70;92.20
16247;DHT22;8231;50.866;7.944;2023-08-21T11:09:52;33.70;92.30
16247;DHT22;8231;50.866;7.944;2023-08-21T11:12:21;33.90;91.90
16247;DHT22;8231;50.866;7.944;2023-08-21T11:14:50;33.80;91.40
16247;DHT22;8231;50.866;7.944;2023-08-21T11:17:20;33.90;92.20
16247;DHT22;8231;50.866;7.944;2023-08-21T11:19:50;34.10;91.00
16247;DHT22;8231;50.866;7.944;2023-08-21T11:22:19;34.20;91.80
16247;DHT22;8231;50.866;7.944;2023-08-21T11:24:48;34.40;91.60
16247;DHT22;8231;50.866;7.944;2023-08-21T11:27:18;34.60;90.50
16247;DHT22;8231;50.866;7.944;2023-08-21T11:29:51;34.80;90.10
16247;DHT22;8231;50.866;7.944;2023-08-21T11:32:22;35.10;90.00
16247;DHT22;8231;50.866;7.944;2023-08-21T11:34:52;35.00;88.10
16247;DHT22;8231;50.866;7.944;2023-08-21T11:37:22;35.20;90.30
16247;DHT22;8231;50.866;7.944;2023-08-21T11:39:52;35.10;90.00
16247;DHT22;8231;50.866;7.944;2023-08-21T11:42:22;35.00;90.40
16247;DHT22;8231;50.866;7.944;2023-08-21T11:44:52;34.80;90.30
16247;DHT22;8231;50.866;7.944;2023-08-21T11:47:23;34.40;90.70
16247;DHT22;8231;50.866;7.944;2023-08-21T11:49:51;33.90;90.40
16247;DHT22;8231;50.866;7.944;2023-08-21T11:52:21;33.80;91.00
16247;DHT22;8231;50.866;7.944;2023-08-21T11:54:52;33.90;91.50
16247;DHT22;8231;50.866;7.944;2023-08-21T11:57:21;33.90;90.60
16247;DHT22;8231;50.866;7.944;2023-08-21T11:59:50;33.60;90.60
16247;DHT22;8231;50.866;7.944;2023-08-21T12:02:21;33.20;91.20
16247;DHT22;8231;50.866;7.944;2023-08-21T12:04:53;33.10;91.90
16247;DHT22;8231;50.866;7.944;2023-08-21T12:07:21;33.20;91.30
16247;DHT22;8231;50.866;7.944;2023-08-21T12:09:49;33.90;91.70
16247;DHT22;8231;50.866;7.944;2023-08-21T12:12:18;34.40;90.90
16247;DHT22;8231;50.866;7.944;2023-08-21T12:14:46;35.00;90.90
16247;DHT22;8231;50.866;7.944;2023-08-21T12:17:14;35.50;90.00
16247;DHT22;8231;50.866;7.944;2023-08-21T12:19:42;35.50;87.20
16247;DHT22;8231;50.866;7.944;2023-08-21T12:22:12;35.30;87.80
16247;DHT22;8231;50.866;7.944;2023-08-21T12:24:40;35.20;82.60
16247;DHT22;8231;50.866;7.944;2023-08-21T12:27:09;35.20;85.70
16247;DHT22;8231;50.866;7.944;2023-08-21T12:29:37;35.20;86.60
16247;DHT22;8231;50.866;7.944;2023-08-21T12:32:05;34.90;86.10
16247;DHT22;8231;50.866;7.944;2023-08-21T12:34:34;35.00;86.60
16247;DHT22;8231;50.866;7.944;2023-08-21T12:37:02;35.00;88.20
16247;DHT22;8231;50.866;7.944;2023-08-21T12:39:32;35.20;87.00
16247;DHT22;8231;50.866;7.944;2023-08-21T12:42:01;35.50;86.20
16247;DHT22;8231;50.866;7.944;2023-08-21T12:44:29;35.30;84.60
16247;DHT22;8231;50.866;7.944;2023-08-21T12:46:57;34.80;85.00
16247;DHT22;8231;50.866;7.944;2023-08-21T12:49:26;34.50;85.60
16247;DHT22;8231;50.866;7.944;2023-08-21T12:51:54;34.10;87.30
16247;DHT22;8231;50.866;7.944;2023-08-21T12:54:22;33.80;88.80
16247;DHT22;8231;50.866;7.944;2023-08-21T12:56:53;33.70;88.40
16247;DHT22;8231;50.866;7.944;2023-08-21T12:59:23;33.70;90.30
16247;DHT22;8231;50.866;7.944;2023-08-21T13:01:51;33.80;88.20
16247;DHT22;8231;50.866;7.944;2023-08-21T13:04:20;33.90;88.80
16247;DHT22;8231;50.866;7.944;2023-08-21T13:06:48;34.00;90.20
16247;DHT22;8231;50.866;7.944;2023-08-21T13:09:16;34.30;90.20
16247;DHT22;8231;50.866;7.944;2023-08-21T13:11:45;34.40;86.80
16247;DHT22;8231;50.866;7.944;2023-08-21T13:14:15;34.30;87.10
16247;DHT22;8231;50.866;7.944;2023-08-21T13:16:43;34.10;85.80
16247;DHT22;8231;50.866;7.944;2023-08-21T13:19:11;33.80;84.90
16247;DHT22;8231;50.866;7.944;2023-08-21T13:21:39;33.50;85.90
16247;DHT22;8231;50.866;7.944;2023-08-21T13:24:08;33.50;84.90
16247;DHT22;8231;50.866;7.944;2023-08-21T13:26:36;33.30;87.20
16247;DHT22;8231;50.866;7.944;2023-08-21T13:29:04;33.30;88.10
16247;DHT22;8231;50.866;7.944;2023-08-21T13:31:35;33.40;86.60
16247;DHT22;8231;50.866;7.944;2023-08-21T13:34:04;33.40;86.70
16247;DHT22;8231;50.866;7.944;2023-08-21T13:36:32;33.20;85.90
16247;DHT22;8231;50.866;7.944;2023-08-21T13:39:00;33.20;86.40
16247;DHT22;8231;50.866;7.944;2023-08-21T13:41:30;33.30;86.60
16247;DHT22;8231;50.866;7.944;2023-08-21T13:43:58;33.40;86.50
16247;DHT22;8231;50.866;7.944;2023-08-21T13:46:27;33.20;87.30
16247;DHT22;8231;50.866;7.944;2023-08-21T13:48:56;33.10;88.40
16247;DHT22;8231;50.866;7.944;2023-08-21T13:51:24;32.90;88.10
16247;DHT22;8231;50.866;7.944;2023-08-21T13:53:53;32.60;87.20
16247;DHT22;8231;50.866;7.944;2023-08-21T13:56:21;32.50;88.20
16247;DHT22;8231;50.866;7.944;2023-08-21T13:58:49;32.70;88.90
16247;DHT22;8231;50.866;7.944;2023-08-21T14:01:18;32.90;88.80
16247;DHT22;8231;50.866;7.944;2023-08-21T14:03:46;32.90;87.40
16247;DHT22;8231;50.866;7.944;2023-08-21T14:06:16;33.00;88.30
16247;DHT22;8231;50.866;7.944;2023-08-21T14:08:45;33.10;88.70
16247;DHT22;8231;50.866;7.944;2023-08-21T14:11:13;33.10;86.90
16247;DHT22;8231;50.866;7.944;2023-08-21T14:13:41;33.00;88.30
16247;DHT22;8231;50.866;7.944;2023-08-21T14:16:09;32.80;86.30
16247;DHT22;8231;50.866;7.944;2023-08-21T14:18:38;32.60;89.30
16247;DHT22;8231;50.866;7.944;2023-08-21T14:21:06;32.80;88.60
16247;DHT22;8231;50.866;7.944;2023-08-21T14:23:36;33.10;88.00
16247;DHT22;8231;50.866;7.944;2023-08-21T14:26:06;33.20;84.90
16247;DHT22;8231;50.866;7.944;2023-08-21T14:28:34;33.00;84.90
16247;DHT22;8231;50.866;7.944;2023-08-21T14:31:03;32.90;85.70
16247;DHT22;8231;50.866;7.944;2023-08-21T14:33:31;33.00;86.60
16247;DHT22;8231;50.866;7.944;2023-08-21T14:36:00;33.10;86.70
16247;DHT22;8231;50.866;7.944;2023-08-21T14:38:29;33.00;87.80
16247;DHT22;8231;50.866;7.944;2023-08-21T14:40:58;32.90;87.80
16247;DHT22;8231;50.866;7.944;2023-08-21T14:43:27;32.90;86.60
16247;DHT22;8231;50.866;7.944;2023-08-21T14:45:59;32.80;88.00
16247;DHT22;8231;50.866;7.944;2023-08-21T14:48:27;32.90;86.20
16247;DHT22;8231;50.866;7.944;2023-08-21T14:50:55;32.60;86.50
16247;DHT22;8231;50.866;7.944;2023-08-21T14:53:24;32.60;86.60
16247;DHT22;8231;50.866;7.944;2023-08-21T14:55:53;32.80;88.10
16247;DHT22;8231;50.866;7.944;2023-08-21T14:58:24;33.00;86.50
16247;DHT22;8231;50.866;7.944;2023-08-21T15:00:54;33.00;86.80
16247;DHT22;8231;50.866;7.944;2023-08-21T15:03:23;32.70;84.30
16247;DHT22;8231;50.866;7.944;2023-08-21T15:05:51;32.60;86.50
16247;DHT22;8231;50.866;7.944;2023-08-21T15:08:19;32.20;87.20
16247;DHT22;8231;50.866;7.944;2023-08-21T15:10:48;32.10;87.50
16247;DHT22;8231;50.866;7.944;2023-08-21T15:13:16;32.00;87.80
16247;DHT22;8231;50.866;7.944;2023-08-21T15:15:45;32.00;87.70
16247;DHT22;8231;50.866;7.944;2023-08-21T15:18:14;32.10;89.50
16247;DHT22;8231;50.866;7.944;2023-08-21T15:20:42;32.20;89.10
16247;DHT22;8231;50.866;7.944;2023-08-21T15:23:10;32.00;88.90
16247;DHT22;8231;50.866;7.944;2023-08-21T15:25:38;32.10;88.80
16247;DHT22;8231;50.866;7.944;2023-08-21T15:28:07;32.00;87.70
16247;DHT22;8231;50.866;7.944;2023-08-21T15:30:36;32.00;89.10
16247;DHT22;8231;50.866;7.944;2023-08-21T15:33:05;31.90;89.10
16247;DHT22;8231;50.866;7.944;2023-08-21T15:35:34;31.80;90.40
16247;DHT22;8231;50.866;7.944;2023-08-21T15:38:02;31.70;88.50
16247;DHT22;8231;50.866;7.944;2023-08-21T15:40:31;31.60;90.70
16247;DHT22;8231;50.866;7.944;2023-08-21T15:43:01;31.50;89.90
16247;DHT22;8231;50.866;7.944;2023-08-21T15:45:30;31.40;90.00
16247;DHT22;8231;50.866;7.944;2023-08-21T15:47:59;31.30;90.00
16247;DHT22;8231;50.866;7.944;2023-08-21T15:50:29;31.00;90.00
16247;DHT22;8231;50.866;7.944;2023-08-21T15:52:57;30.90;90.70
16247;DHT22;8231;50.866;7.944;2023-08-21T15:55:26;30.70;90.80
16247;DHT22;8231;50.866;7.944;2023-08-21T15:57:54;30.70;91.10